Time;durP1;ratioP1;P1;durP2;ratioP2;P2;SDS_P1;SDS_P2;PMS_P1;PMS_P2;Temp;Humidity;BMP_temperature;BMP_pressure;BME280_temperature;BME280_humidity;BME280_pressure;Samples;Min_cycle;Max_cycle;Signal;HPM_P1;HPM_P2
2021/05/02 00:00:45;;;;;;;9.25;8.30;;;8.80;92.10;;;;;;5002934;28;20643;-74
2021/05/02 00:03:11;;;;;;;12.98;8.88;;;8.80;92.20;;;;;;5025271;28;20311;-75
2021/05/02 00:05:38;;;;;;;13.70;9.00;;;8.80;92.20;;;;;;5001795;28;20222;-74
2021/05/02 00:08:05;;;;;;;10.20;8.90;;;8.70;92.50;;;;;;5017119;28;20240;-75
2021/05/02 00:10:33;;;;;;;9.63;8.40;;;8.70;92.70;;;;;;5011146;28;20185;-74
2021/05/02 00:13:01;;;;;;;12.02;9.30;;;8.60;92.70;;;;;;5017184;28;20686;-74
2021/05/02 00:15:29;;;;;;;10.95;8.27;;;8.60;92.90;;;;;;5017750;28;20272;-76
2021/05/02 00:17:56;;;;;;;15.05;8.82;;;8.70;93.10;;;;;;5011973;28;20226;-74
2021/05/02 00:20:25;;;;;;;11.10;8.95;;;8.60;93.40;;;;;;4995813;28;20273;-76
2021/05/02 00:22:55;;;;;;;14.13;9.40;;;8.50;93.60;;;;;;5014872;28;20221;-77
2021/05/02 00:25:27;;;;;;;9.85;8.93;;;8.40;94.30;;;;;;4995177;28;20202;-76
2021/05/02 00:27:54;;;;;;;10.30;9.02;;;8.30;94.90;;;;;;5004573;28;20217;-77
2021/05/02 00:30:23;;;;;;;10.15;8.85;;;8.30;95.50;;;;;;5026821;28;20640;-76
2021/05/02 00:32:52;;;;;;;11.00;8.90;;;8.20;96.40;;;;;;5010163;28;20722;-76
2021/05/02 00:35:21;;;;;;;9.95;8.65;;;8.10;97.00;;;;;;4983904;28;20275;-76
2021/05/02 00:37:48;;;;;;;12.05;10.65;;;8.00;98.00;;;;;;4996769;28;20228;-75
2021/05/02 00:40:19;;;;;;;12.63;9.40;;;8.00;98.00;;;;;;5026961;28;20186;-75
2021/05/02 00:42:50;;;;;;;14.88;10.35;;;8.00;98.20;;;;;;5012695;28;20221;-76
2021/05/02 00:45:23;;;;;;;12.93;10.77;;;8.00;98.70;;;;;;4995168;28;20297;-75
2021/05/02 00:47:58;;;;;;;12.20;9.90;;;8.10;99.00;;;;;;5001830;28;20703;-76
2021/05/02 00:50:32;;;;;;;11.88;10.27;;;8.10;98.90;;;;;;5010232;28;20243;-75
2021/05/02 00:53:01;;;;;;;11.35;9.88;;;8.20;98.80;;;;;;5015658;28;20240;-74
2021/05/02 00:55:28;;;;;;;15.73;10.55;;;8.10;98.80;;;;;;5002304;28;20750;-76
2021/05/02 00:58:12;;;;;;;13.10;10.60;;;8.20;98.80;;;;;;5031663;28;20304;-77
2021/05/02 01:00:40;;;;;;;13.13;8.73;;;8.10;98.70;;;;;;5015869;28;20566;-77
2021/05/02 01:03:07;;;;;;;13.07;11.10;;;8.20;99.00;;;;;;5003341;28;20217;-74
2021/05/02 01:05:34;;;;;;;11.43;10.32;;;8.20;99.20;;;;;;5011793;28;20316;-76
2021/05/02 01:08:04;;;;;;;12.23;10.55;;;8.10;99.00;;;;;;5013918;28;20614;-75
2021/05/02 01:10:31;;;;;;;13.38;12.02;;;8.10;99.40;;;;;;5010398;28;20201;-76
2021/05/02 01:13:03;;;;;;;12.75;10.50;;;8.20;99.60;;;;;;5013770;28;20213;-76
2021/05/02 01:15:33;;;;;;;12.75;10.93;;;8.20;99.90;;;;;;5013964;28;20587;-76
2021/05/02 01:18:09;;;;;;;12.90;11.43;;;8.20;99.90;;;;;;4995073;28;20213;-76
2021/05/02 01:20:38;;;;;;;12.45;11.10;;;8.20;99.90;;;;;;5017081;28;20524;-77
2021/05/02 01:23:16;;;;;;;12.50;10.20;;;8.20;99.90;;;;;;5006671;28;20237;-74
2021/05/02 01:25:43;;;;;;;11.85;10.55;;;8.20;99.90;;;;;;5012351;28;20236;-74
2021/05/02 01:28:10;;;;;;;13.13;11.00;;;8.10;99.90;;;;;;5009951;28;20300;-74
2021/05/02 01:30:38;;;;;;;13.80;11.00;;;8.20;99.90;;;;;;5012397;28;20218;-76
2021/05/02 01:33:05;;;;;;;11.27;10.02;;;8.20;99.90;;;;;;4994862;28;20751;-76
2021/05/02 01:35:32;;;;;;;12.73;10.20;;;8.10;99.90;;;;;;4996663;28;20221;-76
2021/05/02 01:37:59;;;;;;;11.82;10.45;;;8.10;99.90;;;;;;5013236;28;20228;-77
2021/05/02 01:40:26;;;;;;;15.35;11.15;;;8.00;99.90;;;;;;4999381;28;20219;-75
2021/05/02 01:42:52;;;;;;;13.80;10.90;;;7.90;99.90;;;;;;5022759;28;20228;-75
2021/05/02 01:45:18;;;;;;;13.93;12.35;;;8.00;99.90;;;;;;5000152;28;20904;-74
2021/05/02 01:47:52;;;;;;;15.18;11.77;;;8.00;99.90;;;;;;5029308;28;20220;-74
2021/05/02 01:50:18;;;;;;;15.70;11.60;;;8.00;99.90;;;;;;5007472;28;20178;-77
2021/05/02 01:52:51;;;;;;;12.52;11.20;;;8.10;99.90;;;;;;4991871;28;20646;-74
2021/05/02 01:55:19;;;;;;;13.25;11.55;;;8.00;99.90;;;;;;5004840;28;20185;-78
2021/05/02 01:57:48;;;;;;;13.88;11.90;;;8.00;99.90;;;;;;5020365;28;20304;-74
2021/05/02 02:00:21;;;;;;;14.43;12.88;;;8.00;99.90;;;;;;5008799;28;20273;-76
2021/05/02 02:02:49;;;;;;;14.13;12.07;;;8.00;99.90;;;;;;5008173;28;20317;-76
2021/05/02 02:05:16;;;;;;;19.70;12.63;;;7.90;99.90;;;;;;5012825;28;20208;-74
2021/05/02 02:07:43;;;;;;;16.85;12.90;;;7.90;99.90;;;;;;4982806;28;20587;-77
2021/05/02 02:10:10;;;;;;;14.07;12.23;;;7.90;99.90;;;;;;5000312;28;20186;-76
2021/05/02 02:12:38;;;;;;;19.23;13.85;;;7.80;99.90;;;;;;5011894;28;20228;-75
2021/05/02 02:15:05;;;;;;;16.45;12.85;;;7.90;99.90;;;;;;5001896;28;20186;-74
2021/05/02 02:17:31;;;;;;;16.50;12.68;;;7.90;99.90;;;;;;5017733;28;20229;-75
2021/05/02 02:19:58;;;;;;;17.63;12.73;;;8.00;99.90;;;;;;4994651;28;20220;-77
2021/05/02 02:22:25;;;;;;;20.08;14.02;;;8.00;99.90;;;;;;5011151;28;20221;-75
2021/05/02 02:24:58;;;;;;;17.33;13.75;;;8.00;99.90;;;;;;5013876;28;20236;-77
2021/05/02 02:27:30;;;;;;;17.55;14.07;;;7.90;99.90;;;;;;5017567;28;20304;-75
2021/05/02 02:30:09;;;;;;;18.30;13.77;;;7.90;99.90;;;;;;5020339;28;20193;-75
2021/05/02 02:32:44;;;;;;;16.42;13.68;;;7.90;99.90;;;;;;4977693;28;20596;-75
2021/05/02 02:35:15;;;;;;;22.85;17.20;;;7.90;99.90;;;;;;5023645;28;20264;-74
2021/05/02 02:37:47;;;;;;;21.17;15.57;;;7.90;99.90;;;;;;5008876;28;20216;-77
2021/05/02 02:40:16;;;;;;;19.40;15.50;;;7.90;99.90;;;;;;5000455;28;20189;-76
2021/05/02 02:42:45;;;;;;;17.08;15.15;;;8.00;99.90;;;;;;5029276;28;20221;-75
2021/05/02 02:45:13;;;;;;;19.98;16.05;;;8.00;99.90;;;;;;5027887;28;20205;-76
2021/05/02 02:47:53;;;;;;;20.05;14.38;;;8.00;99.90;;;;;;5013075;28;20710;-76
2021/05/02 02:50:20;;;;;;;17.77;15.88;;;8.00;99.90;;;;;;5015014;28;20185;-75
2021/05/02 02:52:55;;;;;;;18.58;15.23;;;8.00;99.90;;;;;;5027448;28;20296;-76
2021/05/02 02:55:24;;;;;;;16.80;14.05;;;8.00;99.90;;;;;;5026615;28;20187;-74
2021/05/02 02:57:56;;;;;;;18.85;16.23;;;8.00;99.90;;;;;;5016213;28;20225;-74
2021/05/02 03:00:25;;;;;;;17.75;15.88;;;8.00;99.90;;;;;;5016980;28;20211;-76
2021/05/02 03:03:13;;;;;;;21.83;14.38;;;8.00;99.90;;;;;;5027479;28;20221;-76
2021/05/02 03:05:41;;;;;;;21.80;16.40;;;8.10;99.90;;;;;;5035830;28;20222;-76
2021/05/02 03:08:09;;;;;;;18.38;15.65;;;8.10;99.90;;;;;;4998069;28;20213;-74
2021/05/02 03:10:40;;;;;;;18.67;15.27;;;8.20;99.90;;;;;;5017534;28;20236;-75
2021/05/02 03:13:07;;;;;;;18.55;15.40;;;8.20;99.90;;;;;;5014443;28;20219;-77
2021/05/02 03:15:34;;;;;;;18.55;14.90;;;8.10;99.90;;;;;;5030199;28;20201;-74
2021/05/02 03:18:06;;;;;;;17.00;15.20;;;8.10;99.90;;;;;;5025670;28;20221;-76
2021/05/02 03:20:38;;;;;;;16.70;14.85;;;8.10;99.90;;;;;;5010311;28;20190;-75
2021/05/02 03:23:11;;;;;;;18.55;14.82;;;8.10;99.90;;;;;;5014073;28;20694;-76
2021/05/02 03:25:42;;;;;;;17.85;14.68;;;8.10;99.90;;;;;;5008811;28;20225;-75
2021/05/02 03:28:13;;;;;;;19.05;15.75;;;8.10;99.90;;;;;;5018058;28;20216;-75
2021/05/02 03:30:45;;;;;;;19.23;14.90;;;8.10;99.90;;;;;;5005388;28;20193;-76
2021/05/02 03:33:13;;;;;;;21.80;16.10;;;8.00;99.90;;;;;;4996500;28;20742;-76
2021/05/02 03:35:44;;;;;;;21.05;15.52;;;8.00;99.90;;;;;;5005143;28;20300;-76
2021/05/02 03:38:23;;;;;;;19.02;16.40;;;8.00;99.90;;;;;;5015369;28;20788;-76
2021/05/02 03:40:51;;;;;;;19.90;15.77;;;7.90;99.90;;;;;;5020924;28;20667;-77
2021/05/02 03:43:17;;;;;;;18.77;15.38;;;7.90;99.90;;;;;;5019692;28;20236;-75
2021/05/02 03:45:45;;;;;;;20.55;15.52;;;7.90;99.90;;;;;;4999294;28;20308;-76
2021/05/02 03:48:11;;;;;;;20.65;17.98;;;7.90;99.90;;;;;;4999357;28;20327;-74
2021/05/02 03:50:38;;;;;;;20.45;16.45;;;7.90;99.90;;;;;;5015034;28;20615;-76
2021/05/02 03:53:04;;;;;;;23.55;17.30;;;7.90;99.90;;;;;;5017002;28;20303;-76
2021/05/02 03:55:46;;;;;;;19.95;16.38;;;7.90;99.90;;;;;;5011932;28;20216;-74
2021/05/02 03:58:14;;;;;;;20.98;15.45;;;7.90;99.90;;;;;;4996257;28;20738;-74
2021/05/02 04:00:42;;;;;;;18.85;15.43;;;7.90;99.90;;;;;;5010538;28;20186;-75
2021/05/02 04:03:11;;;;;;;22.60;17.90;;;7.90;99.90;;;;;;5012774;28;20229;-77
2021/05/02 04:05:38;;;;;;;22.83;16.75;;;7.80;99.90;;;;;;5013754;28;20210;-76
2021/05/02 04:08:05;;;;;;;20.60;17.38;;;7.80;99.90;;;;;;5013833;28;20648;-74
2021/05/02 04:10:32;;;;;;;23.17;16.92;;;7.80;99.90;;;;;;5024759;28;20536;-75
2021/05/02 04:12:59;;;;;;;19.35;17.30;;;7.70;99.90;;;;;;5004385;28;20764;-75
2021/05/02 04:15:26;;;;;;;22.60;16.67;;;7.70;99.90;;;;;;4996336;28;20197;-74
2021/05/02 04:17:54;;;;;;;17.98;16.08;;;7.70;99.90;;;;;;5002965;28;20232;-75
2021/05/02 04:20:23;;;;;;;24.05;18.60;;;7.70;99.90;;;;;;5018131;28;20277;-76
2021/05/02 04:22:52;;;;;;;22.30;16.50;;;7.70;99.90;;;;;;5021326;28;20702;-75
2021/05/02 04:25:18;;;;;;;20.75;17.08;;;7.70;99.90;;;;;;5016407;28;20200;-75
2021/05/02 04:27:45;;;;;;;18.60;15.70;;;7.70;99.90;;;;;;5011590;28;20220;-76
2021/05/02 04:30:12;;;;;;;25.88;17.45;;;7.60;99.90;;;;;;5004166;28;20194;-77
2021/05/02 04:32:38;;;;;;;24.38;18.60;;;7.70;99.90;;;;;;5022368;28;20222;-75
2021/05/02 04:35:05;;;;;;;20.50;16.63;;;7.60;99.90;;;;;;5028549;28;20200;-75
2021/05/02 04:37:33;;;;;;;17.90;14.93;;;7.70;99.90;;;;;;5024325;28;20333;-74
2021/05/02 04:39:59;;;;;;;21.77;15.75;;;7.60;99.90;;;;;;5014224;28;20542;-75
2021/05/02 04:42:25;;;;;;;21.20;15.73;;;7.60;99.90;;;;;;4998998;28;20225;-76
2021/05/02 04:44:52;;;;;;;21.20;15.52;;;7.50;99.90;;;;;;4995699;28;20213;-76
2021/05/02 04:47:20;;;;;;;18.13;14.77;;;7.50;99.90;;;;;;4979818;28;20309;-77
2021/05/02 04:49:48;;;;;;;21.70;16.48;;;7.50;99.90;;;;;;4995105;28;20734;-76
2021/05/02 04:52:15;;;;;;;18.77;16.80;;;7.50;99.90;;;;;;4995607;28;20179;-75
2021/05/02 04:54:41;;;;;;;23.88;16.25;;;7.50;99.90;;;;;;5029209;28;20621;-74
2021/05/02 04:57:08;;;;;;;18.77;15.40;;;7.50;99.90;;;;;;5009277;28;20707;-75
2021/05/02 04:59:36;;;;;;;20.58;15.45;;;7.60;99.90;;;;;;5012721;28;20240;-77
2021/05/02 05:02:03;;;;;;;20.55;17.15;;;7.60;99.90;;;;;;5024519;28;20681;-77
2021/05/02 05:04:30;;;;;;;20.40;15.25;;;7.60;99.90;;;;;;5008449;28;20210;-75
2021/05/02 05:07:00;;;;;;;18.38;14.60;;;7.70;99.90;;;;;;5002328;28;20209;-75
2021/05/02 05:09:26;;;;;;;22.90;15.38;;;7.60;99.90;;;;;;5012442;28;20275;-75
2021/05/02 05:11:53;;;;;;;17.77;13.70;;;7.60;99.90;;;;;;5012209;28;20223;-76
2021/05/02 05:14:20;;;;;;;17.20;15.23;;;7.60;99.90;;;;;;4984326;28;20300;-74
2021/05/02 05:16:46;;;;;;;17.20;14.80;;;7.60;99.90;;;;;;4979860;28;20695;-76
2021/05/02 05:19:15;;;;;;;18.17;15.27;;;7.70;99.90;;;;;;5031724;28;20282;-76
2021/05/02 05:21:41;;;;;;;18.50;14.80;;;7.70;99.90;;;;;;4998066;28;20231;-75
2021/05/02 05:24:08;;;;;;;19.13;14.85;;;7.70;99.90;;;;;;5010074;28;20216;-77
2021/05/02 05:26:35;;;;;;;19.30;14.45;;;7.70;99.90;;;;;;5012152;28;20214;-74
2021/05/02 05:29:01;;;;;;;20.50;15.00;;;7.70;99.90;;;;;;5002168;28;20214;-77
2021/05/02 05:31:28;;;;;;;18.50;15.30;;;7.70;99.90;;;;;;5021299;28;20567;-75
2021/05/02 05:33:55;;;;;;;18.67;14.23;;;7.70;99.90;;;;;;5012741;28;20296;-76
2021/05/02 05:36:21;;;;;;;15.60;13.65;;;7.80;99.90;;;;;;5010337;28;20287;-77
2021/05/02 05:38:48;;;;;;;17.00;13.95;;;7.80;99.90;;;;;;4994273;28;20304;-74
2021/05/02 05:41:15;;;;;;;20.10;15.15;;;7.90;99.90;;;;;;5012133;28;20284;-76
2021/05/02 05:43:41;;;;;;;18.02;14.15;;;8.10;99.90;;;;;;5002873;28;20212;-74
2021/05/02 05:46:07;;;;;;;21.88;13.00;;;8.20;99.90;;;;;;5014595;28;20214;-75
2021/05/02 05:48:34;;;;;;;17.58;13.38;;;8.10;99.90;;;;;;4998021;28;20228;-73
2021/05/02 05:51:01;;;;;;;19.75;15.23;;;8.10;99.90;;;;;;5024580;28;20282;-77
2021/05/02 05:53:27;;;;;;;16.30;13.32;;;8.10;99.90;;;;;;5009533;28;20260;-77
2021/05/02 05:55:56;;;;;;;17.08;13.30;;;8.20;99.90;;;;;;5013738;28;20220;-76
2021/05/02 05:58:24;;;;;;;15.65;13.48;;;8.50;99.90;;;;;;5004094;28;20270;-76
2021/05/02 06:00:53;;;;;;;16.52;12.98;;;8.90;99.90;;;;;;4996729;28;20224;-76
2021/05/02 06:03:23;;;;;;;16.15;12.65;;;9.20;99.90;;;;;;4997661;28;20591;-74
2021/05/02 06:05:50;;;;;;;13.15;11.18;;;9.60;99.90;;;;;;5024654;28;20216;-74
2021/05/02 06:08:21;;;;;;;12.32;10.57;;;9.80;99.90;;;;;;4984826;28;20231;-77
2021/05/02 06:10:48;;;;;;;13.05;10.88;;;9.90;99.90;;;;;;5020151;28;20257;-73
2021/05/02 06:13:18;;;;;;;12.55;10.15;;;9.70;99.90;;;;;;5030705;28;20224;-74
2021/05/02 06:15:48;;;;;;;14.57;10.52;;;9.60;99.90;;;;;;5006991;28;20209;-76
2021/05/02 06:18:39;;;;;;;13.90;10.18;;;9.30;99.90;;;;;;4998237;28;20209;-75
2021/05/02 06:21:08;;;;;;;13.38;9.10;;;9.00;99.90;;;;;;5017445;28;20190;-74
2021/05/02 06:23:35;;;;;;;15.52;9.93;;;8.80;99.90;;;;;;5027220;28;20228;-75
2021/05/02 06:26:05;;;;;;;12.13;9.35;;;8.70;99.90;;;;;;5003365;28;20308;-75
2021/05/02 06:28:36;;;;;;;14.13;8.95;;;8.60;99.90;;;;;;5016654;28;20221;-78
2021/05/02 06:31:05;;;;;;;10.15;9.05;;;8.60;99.90;;;;;;5017994;28;20192;-76
2021/05/02 06:33:32;;;;;;;13.10;8.98;;;8.60;99.90;;;;;;5019371;28;20304;-74
2021/05/02 06:36:01;;;;;;;10.43;8.07;;;8.50;99.90;;;;;;5026820;28;20205;-75
2021/05/02 06:38:28;;;;;;;8.50;7.57;;;8.50;99.90;;;;;;5034223;28;20236;-74
2021/05/02 06:40:54;;;;;;;11.32;8.25;;;8.50;99.90;;;;;;5013919;28;20197;-74
2021/05/02 06:43:23;;;;;;;10.77;8.30;;;8.60;99.90;;;;;;5014495;28;20209;-77
2021/05/02 06:45:53;;;;;;;10.95;8.95;;;8.50;99.90;;;;;;5007911;28;20239;-72
2021/05/02 06:48:19;;;;;;;9.23;8.07;;;8.50;99.90;;;;;;4999243;28;20297;-75
2021/05/02 06:50:46;;;;;;;12.68;7.45;;;8.40;99.90;;;;;;5020841;28;20587;-74
2021/05/02 06:53:12;;;;;;;10.07;7.20;;;8.50;99.90;;;;;;5023691;28;20321;-75
2021/05/02 06:55:39;;;;;;;9.23;7.35;;;8.40;99.90;;;;;;5012443;28;20838;-76
2021/05/02 06:58:06;;;;;;;10.88;7.00;;;8.40;99.90;;;;;;5012544;28;20264;-75
2021/05/02 07:00:36;;;;;;;7.50;6.75;;;8.50;99.90;;;;;;5015524;28;20181;-74
2021/05/02 07:03:02;;;;;;;7.22;6.00;;;8.40;99.90;;;;;;5015862;28;20228;-74
2021/05/02 07:05:29;;;;;;;11.43;6.80;;;8.50;99.90;;;;;;5030349;28;20679;-73
2021/05/02 07:07:56;;;;;;;8.20;6.22;;;8.60;99.90;;;;;;5008333;28;20254;-75
2021/05/02 07:10:22;;;;;;;10.20;6.18;;;8.60;99.90;;;;;;4997027;28;20186;-73
2021/05/02 07:12:49;;;;;;;9.02;6.28;;;8.70;99.90;;;;;;5014540;28;20248;-76
2021/05/02 07:15:16;;;;;;;7.20;6.50;;;8.70;99.90;;;;;;4991116;28;20678;-76
2021/05/02 07:17:43;;;;;;;9.07;5.38;;;8.80;99.90;;;;;;5020718;28;20634;-74
2021/05/02 07:20:12;;;;;;;9.70;5.85;;;9.00;99.90;;;;;;4997803;28;20190;-75
2021/05/02 07:22:39;;;;;;;9.38;4.78;;;9.20;99.90;;;;;;4993399;28;20710;-74
2021/05/02 07:25:06;;;;;;;10.80;5.00;;;9.40;99.10;;;;;;4995744;28;20217;-74
2021/05/02 07:27:33;;;;;;;5.43;4.63;;;9.50;99.00;;;;;;4996008;28;20218;-76
2021/05/02 07:30:00;;;;;;;7.22;5.05;;;9.50;97.50;;;;;;5013559;28;20558;-76
2021/05/02 07:32:26;;;;;;;7.78;5.55;;;9.20;98.40;;;;;;5010572;28;20632;-75
2021/05/02 07:34:59;;;;;;;9.13;5.72;;;9.20;98.90;;;;;;5005959;28;20248;-74
2021/05/02 07:37:25;;;;;;;8.00;4.97;;;9.10;98.70;;;;;;4995538;28;20241;-74
2021/05/02 07:39:53;;;;;;;8.55;5.25;;;9.20;98.40;;;;;;5002895;28;20220;-75
2021/05/02 07:42:20;;;;;;;8.68;6.18;;;9.30;98.90;;;;;;5005980;28;20205;-74
2021/05/02 07:44:48;;;;;;;7.25;5.65;;;9.70;97.90;;;;;;5025836;28;20195;-74
2021/05/02 07:47:15;;;;;;;8.75;5.10;;;10.00;96.30;;;;;;5001384;28;20211;-73
2021/05/02 07:49:46;;;;;;;5.85;5.10;;;10.30;94.30;;;;;;4993404;28;20198;-75
2021/05/02 07:52:16;;;;;;;7.70;5.00;;;10.40;93.30;;;;;;5009896;28;20186;-74
2021/05/02 07:54:46;;;;;;;8.98;4.60;;;10.30;93.30;;;;;;5032832;28;20273;-77
2021/05/02 07:57:13;;;;;;;12.75;5.20;;;10.00;92.70;;;;;;5012627;28;20213;-75
2021/05/02 07:59:40;;;;;;;7.85;4.50;;;9.90;93.60;;;;;;4999017;28;20204;-75
2021/05/02 08:02:10;;;;;;;8.57;5.00;;;9.90;94.40;;;;;;5026834;28;20193;-76
2021/05/02 08:04:38;;;;;;;4.13;3.38;;;10.00;93.30;;;;;;5001146;28;20190;-76
2021/05/02 08:07:08;;;;;;;5.65;4.15;;;10.20;92.80;;;;;;5016840;28;20229;-75
2021/05/02 08:09:35;;;;;;;8.27;4.03;;;10.50;91.70;;;;;;4996234;28;20186;-74
2021/05/02 08:12:03;;;;;;;3.58;3.10;;;10.60;90.80;;;;;;5008303;28;20191;-74
2021/05/02 08:14:31;;;;;;;4.88;3.78;;;10.60;90.60;;;;;;5013218;28;20226;-75
2021/05/02 08:16:57;;;;;;;3.25;2.92;;;10.70;90.60;;;;;;4998446;28;20240;-74
2021/05/02 08:19:25;;;;;;;6.22;4.18;;;10.80;88.90;;;;;;5018694;28;20218;-74
2021/05/02 08:21:52;;;;;;;5.05;3.95;;;11.10;86.70;;;;;;5004494;28;20651;-75
2021/05/02 08:24:19;;;;;;;6.70;4.00;;;11.10;87.40;;;;;;4995954;28;20214;-73
2021/05/02 08:26:46;;;;;;;4.88;3.50;;;11.10;84.50;;;;;;5007157;28;20286;-75
2021/05/02 08:29:13;;;;;;;8.30;3.75;;;10.80;85.40;;;;;;5001939;28;20218;-74
2021/05/02 08:31:44;;;;;;;5.30;4.07;;;10.60;85.80;;;;;;5004594;28;20253;-75
2021/05/02 08:34:11;;;;;;;5.05;4.30;;;10.70;85.90;;;;;;5029431;28;20228;-76
2021/05/02 08:36:37;;;;;;;6.10;3.80;;;10.90;86.30;;;;;;4997989;28;20616;-76
2021/05/02 08:39:13;;;;;;;5.43;2.95;;;11.20;84.50;;;;;;5014969;28;20217;-75
2021/05/02 08:41:40;;;;;;;4.13;2.80;;;11.20;78.40;;;;;;5002610;28;20671;-74
2021/05/02 08:44:09;;;;;;;3.85;3.38;;;11.10;78.50;;;;;;5008279;28;20476;-76
2021/05/02 08:46:37;;;;;;;6.07;3.53;;;10.80;80.60;;;;;;5003343;28;20210;-76
2021/05/02 08:49:07;;;;;;;8.68;4.30;;;10.50;81.30;;;;;;5003006;28;20333;-74
2021/05/02 08:51:33;;;;;;;7.45;3.05;;;10.30;83.60;;;;;;5007930;28;20194;-76
2021/05/02 08:54:00;;;;;;;4.85;3.10;;;10.40;83.80;;;;;;4997872;28;20312;-75
2021/05/02 08:56:30;;;;;;;8.95;3.13;;;10.80;80.30;;;;;;5010673;28;20580;-75
2021/05/02 08:58:56;;;;;;;4.07;2.50;;;11.20;74.30;;;;;;5000661;28;20708;-74
2021/05/02 09:01:28;;;;;;;6.82;2.38;;;11.50;74.60;;;;;;5009773;28;20192;-75
2021/05/02 09:03:55;;;;;;;4.30;3.30;;;11.60;69.30;;;;;;5009129;28;20218;-74
2021/05/02 09:06:26;;;;;;;3.60;2.42;;;11.50;68.80;;;;;;4994910;28;20469;-75
2021/05/02 09:09:14;;;;;;;3.40;2.57;;;11.30;70.50;;;;;;4990274;28;20216;-73
2021/05/02 09:11:44;;;;;;;4.05;2.25;;;11.00;72.10;;;;;;5001902;28;20460;-76
2021/05/02 09:14:16;;;;;;;3.50;2.70;;;10.90;73.70;;;;;;5006848;28;20222;-77
2021/05/02 09:16:46;;;;;;;6.35;3.15;;;10.80;75.40;;;;;;4997993;28;20241;-76
2021/05/02 09:19:14;;;;;;;5.40;3.38;;;10.60;78.00;;;;;;4983902;28;20222;-76
2021/05/02 09:21:40;;;;;;;5.15;3.05;;;10.60;76.30;;;;;;4979151;28;20557;-74
2021/05/02 09:24:25;;;;;;;2.65;2.45;;;10.80;77.70;;;;;;4976947;28;20289;-75
2021/05/02 09:27:06;;;;;;;6.20;2.70;;;11.00;71.00;;;;;;5018786;28;20219;-73
2021/05/02 09:29:41;;;;;;;8.27;3.55;;;11.00;71.30;;;;;;5031605;28;20825;-75
2021/05/02 09:32:11;;;;;;;4.47;3.30;;;11.00;71.50;;;;;;4994679;28;20551;-73
2021/05/02 09:34:53;;;;;;;7.05;3.38;;;10.80;70.00;;;;;;5005845;28;20198;-75
2021/05/02 09:37:39;;;;;;;3.92;2.92;;;10.70;72.00;;;;;;5005408;28;20675;-74
2021/05/02 09:40:18;;;;;;;5.28;3.40;;;10.40;71.60;;;;;;5005859;28;20189;-75
2021/05/02 09:42:49;;;;;;;4.22;3.10;;;10.30;73.50;;;;;;4971821;28;20224;-76
2021/05/02 09:45:16;;;;;;;4.57;2.78;;;10.50;79.10;;;;;;4999657;28;20202;-74
2021/05/02 09:47:44;;;;;;;4.40;2.88;;;10.90;75.30;;;;;;4998317;28;20217;-74
2021/05/02 09:50:26;;;;;;;4.05;2.72;;;11.10;72.80;;;;;;5010292;28;20657;-74
2021/05/02 09:52:53;;;;;;;6.07;3.15;;;11.10;69.40;;;;;;5021074;28;20573;-75
2021/05/02 09:55:22;;;;;;;2.83;2.58;;;11.00;71.00;;;;;;4994766;28;20181;-74
2021/05/02 09:58:20;;;;;;;4.35;2.85;;;10.90;70.60;;;;;;5010642;28;20281;-75
2021/05/02 10:00:50;;;;;;;4.28;3.17;;;10.80;72.10;;;;;;5005945;28;20607;-73
2021/05/02 10:03:18;;;;;;;7.43;3.65;;;10.70;72.80;;;;;;4981923;28;20675;-75
2021/05/02 10:05:59;;;;;;;4.68;3.60;;;10.60;70.00;;;;;;4996403;28;20214;-76
2021/05/02 10:08:30;;;;;;;5.57;3.22;;;10.50;72.10;;;;;;4973466;28;20237;-74
2021/05/02 10:11:11;;;;;;;3.55;3.13;;;10.50;71.50;;;;;;5007536;28;20298;-74
2021/05/02 10:13:39;;;;;;;3.08;2.78;;;10.50;68.90;;;;;;4999796;28;20229;-73
2021/05/02 10:16:09;;;;;;;3.95;3.03;;;10.40;71.20;;;;;;5016826;28;20200;-75
2021/05/02 10:18:36;;;;;;;4.63;3.25;;;10.40;73.30;;;;;;4999707;28;20763;-74
2021/05/02 10:21:05;;;;;;;3.90;3.55;;;10.50;73.60;;;;;;5029517;28;20189;-76
2021/05/02 10:23:39;;;;;;;4.57;3.15;;;10.40;72.20;;;;;;5005542;28;20721;-74
2021/05/02 10:26:06;;;;;;;8.65;3.50;;;10.50;69.90;;;;;;4997735;28;20694;-75
2021/05/02 10:28:35;;;;;;;4.82;3.47;;;10.70;71.20;;;;;;5010882;28;20638;-75
2021/05/02 10:31:07;;;;;;;3.80;3.25;;;10.90;70.10;;;;;;5000668;28;20218;-73
2021/05/02 10:33:41;;;;;;;3.60;3.10;;;11.20;67.90;;;;;;5005167;28;20245;-75
2021/05/02 10:36:20;;;;;;;3.92;2.55;;;11.40;61.10;;;;;;5017795;28;20232;-76
2021/05/02 10:38:50;;;;;;;4.20;2.97;;;11.50;62.50;;;;;;5030294;28;20225;-75
2021/05/02 10:41:31;;;;;;;3.28;2.97;;;11.30;59.40;;;;;;4992685;28;20311;-74
2021/05/02 10:44:14;;;;;;;4.55;2.85;;;11.20;60.00;;;;;;5021578;28;20216;-76
2021/05/02 10:46:44;;;;;;;3.17;2.65;;;11.10;62.60;;;;;;5030238;28;20209;-75
2021/05/02 10:49:31;;;;;;;3.05;2.75;;;11.20;62.60;;;;;;5010686;28;22251;-74
2021/05/02 10:52:27;;;;;;;10.80;7.15;;;11.20;62.90;;;;;;5012108;28;20186;-75
2021/05/02 10:55:15;;;;;;;10.93;5.30;;;11.40;63.10;;;;;;4978942;28;20214;-74
2021/05/02 10:58:03;;;;;;;5.97;4.63;;;11.60;64.50;;;;;;5009818;28;20460;-75
2021/05/02 11:01:02;;;;;;;5.33;3.37;;;11.90;62.00;;;;;;4996738;28;20495;-74
2021/05/02 11:03:37;;;;;;;5.60;3.93;;;12.10;62.40;;;;;;5024306;28;20534;-74
2021/05/02 11:06:35;;;;;;;4.60;3.57;;;12.30;61.00;;;;;;5002011;28;20569;-75
2021/05/02 11:09:12;;;;;;;5.50;3.60;;;12.30;62.00;;;;;;4988037;28;20472;-75
2021/05/02 11:11:46;;;;;;;4.10;3.40;;;12.40;59.20;;;;;;4993776;28;20537;-74
2021/05/02 11:14:17;;;;;;;4.20;2.67;;;12.20;57.30;;;;;;5003138;28;20482;-74
2021/05/02 11:16:45;;;;;;;3.60;2.60;;;12.20;60.80;;;;;;5012899;28;20452;-74
2021/05/02 11:19:23;;;;;;;5.00;3.20;;;12.10;60.80;;;;;;5001708;28;20475;-75
2021/05/02 11:21:49;;;;;;;4.87;2.40;;;12.10;59.60;;;;;;4987542;28;20449;-74
2021/05/02 11:24:43;;;;;;;3.10;2.80;;;12.00;60.00;;;;;;4996934;28;20550;-76
2021/05/02 11:27:23;;;;;;;3.00;2.43;;;11.90;58.70;;;;;;5008367;28;20570;-73
2021/05/02 11:29:53;;;;;;;4.47;3.50;;;11.70;59.30;;;;;;4981429;28;20436;-73
2021/05/02 11:32:26;;;;;;;5.50;4.45;;;11.50;59.30;;;;;;4997591;28;20539;-75
2021/05/02 11:34:59;;;;;;;6.72;3.90;;;11.30;62.10;;;;;;5012294;28;20186;-74
2021/05/02 11:38:00;;;;;;;8.65;4.00;;;11.30;61.10;;;;;;4980245;28;20281;-75
2021/05/02 11:40:33;;;;;;;5.95;2.78;;;11.40;62.60;;;;;;4999141;28;20245;-73
2021/05/02 11:43:07;;;;;;;4.85;3.40;;;11.40;58.60;;;;;;5003778;28;20693;-74
2021/05/02 11:46:00;;;;;;;5.50;3.47;;;11.40;59.50;;;;;;5005163;28;20237;-76
2021/05/02 11:48:33;;;;;;;6.65;3.20;;;11.40;59.80;;;;;;5013370;28;20551;-74
2021/05/02 11:51:08;;;;;;;4.43;3.75;;;11.40;60.80;;;;;;4998854;28;20196;-73
2021/05/02 11:53:49;;;;;;;7.05;4.70;;;11.50;60.70;;;;;;5009723;28;20216;-74
2021/05/02 11:56:16;;;;;;;6.85;3.60;;;11.50;59.10;;;;;;5000314;28;20224;-74
2021/05/02 11:58:46;;;;;;;5.80;4.70;;;11.50;59.10;;;;;;5012587;28;20312;-73
2021/05/02 12:01:27;;;;;;;6.70;3.37;;;11.50;59.60;;;;;;4994763;28;20436;-73
2021/05/02 12:04:02;;;;;;;6.60;3.00;;;11.50;59.00;;;;;;4999712;28;20504;-73
2021/05/02 12:06:33;;;;;;;5.87;2.90;;;11.40;60.10;;;;;;5015341;28;20479;-74
2021/05/02 12:09:11;;;;;;;4.15;2.85;;;11.30;61.50;;;;;;5023716;28;20464;-74
2021/05/02 12:11:39;;;;;;;4.18;2.72;;;11.30;63.80;;;;;;4999743;28;20194;-76
2021/05/02 12:14:07;;;;;;;4.47;3.00;;;11.30;63.60;;;;;;4990787;28;20214;-75
2021/05/02 12:16:34;;;;;;;4.35;2.75;;;11.40;63.10;;;;;;5008639;28;20321;-76
2021/05/02 12:22:06;;;;;;;3.03;2.53;;;11.50;62.90;;;;;;5016993;28;20195;-77
2021/05/02 12:24:46;;;;;;;5.30;2.65;;;11.70;62.40;;;;;;5013683;28;20444;-74
2021/05/02 12:27:14;;;;;;;4.43;2.67;;;12.00;58.20;;;;;;4999460;28;20220;-74
2021/05/02 12:29:43;;;;;;;6.53;3.60;;;12.00;60.00;;;;;;5030022;28;20447;-74
2021/05/02 12:32:16;;;;;;;3.70;3.03;;;12.00;59.60;;;;;;5014452;28;20786;-75
2021/05/02 12:34:47;;;;;;;2.90;2.70;;;12.00;58.20;;;;;;5013915;28;20945;-75
2021/05/02 12:37:24;;;;;;;4.10;2.40;;;11.90;59.90;;;;;;5004562;28;20962;-75
2021/05/02 12:39:53;;;;;;;5.13;2.33;;;11.90;59.60;;;;;;5011978;28;20504;-74
2021/05/02 12:42:36;;;;;;;5.47;2.33;;;12.00;59.60;;;;;;4986422;28;20855;-74
2021/05/02 12:45:08;;;;;;;5.90;2.60;;;12.00;60.40;;;;;;4997426;28;20450;-75
2021/05/02 12:47:44;;;;;;;3.20;2.90;;;12.10;57.50;;;;;;4991552;28;21028;-77
2021/05/02 12:50:12;;;;;;;3.50;3.07;;;11.90;57.60;;;;;;5025163;28;20805;-75
2021/05/02 12:52:42;;;;;;;3.42;2.35;;;12.00;59.00;;;;;;5024124;28;20554;-74
2021/05/02 12:55:27;;;;;;;3.07;2.77;;;12.00;59.00;;;;;;5005411;28;20193;-73
2021/05/02 12:58:02;;;;;;;6.70;3.10;;;12.10;57.70;;;;;;5001784;28;20471;-74
2021/05/02 13:00:44;;;;;;;5.00;3.23;;;12.30;58.50;;;;;;4983938;28;21045;-74
2021/05/02 13:03:34;;;;;;;3.27;2.27;;;12.40;58.40;;;;;;5000603;28;21004;-75